THY8GZ BKPR-LTFM
Flight info
| Callsign | THY8GZ |
|---|---|
| Flight time | N/A |
| Altitude | 37000 |
| Route | SARAX1A SARAX DCT RUGAS UN128 PEREN UN644 DIGTI T162 DRAMO |
| Aircraft | A321/M-SDE3FGHIRWY/LB1 |
Departure
| Time | 2026-05-07 18:14 |
|---|---|
| Airport | Priština Adem Jashari International Airport (BKPR) |
Arrival
| Time | N/A |
|---|---|
| Airport | İstanbul Airport (LTFM) |
| Time | Latitude | Longitude | Altitude | Speed | Heading |
|---|---|---|---|---|---|
| 2026-05-07 17:51 | 42.57472 | 21.03152 | 1787 ft | 0 kts | 265° |
| 2026-05-07 18:04 | 42.57473 | 21.03174 | 1787 ft | 4 kts | 275° |
| 2026-05-07 18:04 | 42.57466 | 21.03208 | 1785 ft | 4 kts | 309° |
| 2026-05-07 18:05 | 42.57446 | 21.03227 | 1786 ft | 4 kts | 348° |
| 2026-05-07 18:05 | 42.57436 | 21.03230 | 1784 ft | 0 kts | 355° |
| 2026-05-07 18:08 | 42.57442 | 21.03229 | 1787 ft | 2 kts | 355° |
| 2026-05-07 18:09 | 42.57461 | 21.03227 | 1787 ft | 4 kts | 355° |
| 2026-05-07 18:09 | 42.57494 | 21.03224 | 1787 ft | 6 kts | 355° |
| 2026-05-07 18:09 | 42.57538 | 21.03220 | 1787 ft | 7 kts | 2° |
| 2026-05-07 18:09 | 42.57583 | 21.03253 | 1787 ft | 8 kts | 53° |
| 2026-05-07 18:10 | 42.57627 | 21.03304 | 1787 ft | 9 kts | 17° |
| 2026-05-07 18:10 | 42.57697 | 21.03302 | 1787 ft | 11 kts | 356° |
| 2026-05-07 18:10 | 42.57776 | 21.03294 | 1787 ft | 12 kts | 356° |
| 2026-05-07 18:10 | 42.57865 | 21.03285 | 1787 ft | 13 kts | 355° |
| 2026-05-07 18:11 | 42.57960 | 21.03274 | 1788 ft | 14 kts | 355° |
| 2026-05-07 18:11 | 42.58052 | 21.03264 | 1791 ft | 13 kts | 355° |
| 2026-05-07 18:11 | 42.58142 | 21.03255 | 1792 ft | 13 kts | 355° |
| 2026-05-07 18:11 | 42.58233 | 21.03245 | 1794 ft | 13 kts | 355° |
| 2026-05-07 18:12 | 42.58323 | 21.03235 | 1793 ft | 13 kts | 355° |
| 2026-05-07 18:12 | 42.58402 | 21.03270 | 1796 ft | 12 kts | 49° |
| 2026-05-07 18:12 | 42.58441 | 21.03353 | 1799 ft | 10 kts | 58° |
| 2026-05-07 18:12 | 42.58453 | 21.03436 | 1802 ft | 10 kts | 115° |
| 2026-05-07 18:13 | 42.58393 | 21.03476 | 1797 ft | 10 kts | 174° |
| 2026-05-07 18:13 | 42.58377 | 21.03477 | 1798 ft | 2 kts | 175° |
| 2026-05-07 18:13 | 42.58128 | 21.03503 | 1789 ft | 76 kts | 175° |
| 2026-05-07 18:13 | 42.57364 | 21.03580 | 1787 ft | 142 kts | 175° |
| 2026-05-07 18:14 | 42.56224 | 21.03695 | 2006 ft | 174 kts | 175° |
| 2026-05-07 18:14 | 42.55022 | 21.03824 | 2772 ft | 176 kts | 174° |
| 2026-05-07 18:14 | 42.53799 | 21.03962 | 3554 ft | 177 kts | 176° |
| 2026-05-07 18:14 | 42.52535 | 21.04097 | 4025 ft | 192 kts | 178° |
| 2026-05-07 18:15 | 42.51147 | 21.04181 | 4383 ft | 208 kts | 184° |
| 2026-05-07 18:15 | 42.49648 | 21.03873 | 4596 ft | 229 kts | 194° |
| 2026-05-07 18:15 | 42.48027 | 21.03290 | 4855 ft | 252 kts | 198° |
| 2026-05-07 18:15 | 42.46309 | 21.02615 | 5516 ft | 259 kts | 198° |
| 2026-05-07 18:16 | 42.44561 | 21.01935 | 6279 ft | 263 kts | 198° |
| 2026-05-07 18:16 | 42.42788 | 21.01264 | 7004 ft | 266 kts | 198° |
| 2026-05-07 18:16 | 42.40991 | 21.00607 | 7737 ft | 269 kts | 198° |
| 2026-05-07 18:16 | 42.39167 | 20.99959 | 8484 ft | 272 kts | 198° |
| 2026-05-07 18:17 | 42.37318 | 20.99312 | 9228 ft | 275 kts | 198° |
| 2026-05-07 18:17 | 42.35460 | 20.98663 | 9974 ft | 277 kts | 199° |
| 2026-05-07 18:17 | 42.33539 | 20.97985 | 10296 ft | 294 kts | 198° |
| 2026-05-07 18:17 | 42.31518 | 20.97260 | 10456 ft | 316 kts | 198° |
| 2026-05-07 18:18 | 42.29320 | 20.96468 | 10609 ft | 337 kts | 198° |
| 2026-05-07 18:18 | 42.27011 | 20.95645 | 11044 ft | 347 kts | 198° |
| 2026-05-07 18:18 | 42.24657 | 20.94814 | 11543 ft | 352 kts | 198° |
| 2026-05-07 18:18 | 42.22274 | 20.93976 | 12106 ft | 356 kts | 197° |
| 2026-05-07 18:19 | 42.19870 | 20.93130 | 12684 ft | 360 kts | 197° |
| 2026-05-07 18:19 | 42.17426 | 20.92268 | 13287 ft | 364 kts | 197° |
| 2026-05-07 18:19 | 42.14927 | 20.91586 | 13858 ft | 372 kts | 187° |
| 2026-05-07 18:19 | 42.12320 | 20.91824 | 14391 ft | 381 kts | 169° |
| 2026-05-07 18:20 | 42.09825 | 20.93125 | 14935 ft | 390 kts | 152° |
| 2026-05-07 18:20 | 42.07696 | 20.95425 | 15472 ft | 398 kts | 134° |
| 2026-05-07 18:20 | 42.06136 | 20.98538 | 15998 ft | 405 kts | 120° |
| 2026-05-07 18:20 | 42.04832 | 21.01851 | 16555 ft | 407 kts | 119° |
| 2026-05-07 18:21 | 42.03510 | 21.05233 | 17103 ft | 410 kts | 119° |
| 2026-05-07 18:21 | 42.02179 | 21.08642 | 17624 ft | 413 kts | 119° |
| 2026-05-07 18:21 | 42.00835 | 21.12071 | 18135 ft | 416 kts | 119° |
| 2026-05-07 18:21 | 41.99479 | 21.15518 | 18583 ft | 419 kts | 120° |
| 2026-05-07 18:22 | 41.98105 | 21.18998 | 18973 ft | 423 kts | 120° |
| 2026-05-07 18:22 | 41.97171 | 21.21354 | 19240 ft | 425 kts | 120° |
| 2026-05-07 18:22 | 41.95318 | 21.26019 | 19790 ft | 429 kts | 120° |
| 2026-05-07 18:22 | 41.93911 | 21.29559 | 20194 ft | 431 kts | 120° |
| 2026-05-07 18:23 | 41.92487 | 21.33133 | 20605 ft | 434 kts | 120° |
| 2026-05-07 18:23 | 41.91061 | 21.36717 | 21002 ft | 437 kts | 120° |
| 2026-05-07 18:23 | 41.89620 | 21.40332 | 21397 ft | 441 kts | 120° |
| 2026-05-07 18:23 | 41.88166 | 21.43970 | 21798 ft | 443 kts | 120° |
| 2026-05-07 18:24 | 41.86705 | 21.47623 | 22197 ft | 446 kts | 120° |
| 2026-05-07 18:24 | 41.85238 | 21.51288 | 22597 ft | 449 kts | 120° |
| 2026-05-07 18:24 | 41.83755 | 21.54996 | 22980 ft | 452 kts | 120° |
| 2026-05-07 18:24 | 41.82266 | 21.58717 | 23362 ft | 455 kts | 120° |
| 2026-05-07 18:25 | 41.80764 | 21.62463 | 23733 ft | 458 kts | 120° |
| 2026-05-07 18:25 | 41.79250 | 21.66238 | 24052 ft | 461 kts | 120° |
| 2026-05-07 18:25 | 41.77725 | 21.70031 | 24371 ft | 463 kts | 120° |
| 2026-05-07 18:25 | 41.76192 | 21.73829 | 24710 ft | 465 kts | 120° |
| 2026-05-07 18:26 | 41.74661 | 21.77618 | 25030 ft | 468 kts | 120° |
| 2026-05-07 18:26 | 41.73101 | 21.81472 | 25326 ft | 471 kts | 120° |
| 2026-05-07 18:26 | 41.71536 | 21.85332 | 25631 ft | 474 kts | 120° |
| 2026-05-07 18:26 | 41.69959 | 21.89223 | 25933 ft | 477 kts | 120° |
| 2026-05-07 18:27 | 41.68371 | 21.93134 | 26229 ft | 480 kts | 120° |
| 2026-05-07 18:27 | 41.66774 | 21.97069 | 26497 ft | 483 kts | 120° |
| 2026-05-07 18:27 | 41.65167 | 22.01022 | 26786 ft | 486 kts | 120° |
| 2026-05-07 18:27 | 41.63544 | 22.05014 | 27088 ft | 488 kts | 120° |
| 2026-05-07 18:28 | 41.61918 | 22.09011 | 27383 ft | 491 kts | 120° |
| 2026-05-07 18:28 | 41.60283 | 22.13025 | 27664 ft | 493 kts | 120° |
| 2026-05-07 18:28 | 41.58633 | 22.17061 | 27924 ft | 496 kts | 120° |
| 2026-05-07 18:28 | 41.56971 | 22.21109 | 28190 ft | 499 kts | 120° |